Time;durP1;ratioP1;P1;durP2;ratioP2;P2;SDS_P1;SDS_P2;PMS_P1;PMS_P2;Temp;Humidity;BMP_temperature;BMP_pressure;BME280_temperature;BME280_humidity;BME280_pressure;Samples;Min_cycle;Max_cycle;Signal;HPM_P1;HPM_P2
2022/05/05 00:01:55;;;;;;;1.02;0.95;;;20.90;37.00;;;24.72;24.34;101681.13;6184735;23;20020;-16
2022/05/05 00:04:22;;;;;;;1.33;1.05;;;20.90;37.00;;;24.68;24.36;101667.13;6184653;23;20017;-16
2022/05/05 00:06:49;;;;;;;2.10;1.00;;;20.90;37.00;;;24.66;24.44;101663.69;6184847;23;20467;-16
2022/05/05 00:09:15;;;;;;;1.25;0.85;;;20.90;37.00;;;24.73;24.46;101675.69;6184835;23;20088;-16
2022/05/05 00:14:32;;;;;;;1.40;1.08;;;20.90;37.00;;;24.66;24.20;101661.00;6185431;23;20041;-16
2022/05/05 00:17:07;;;;;;;1.05;0.95;;;20.90;37.00;;;24.71;24.32;101671.41;6185097;23;20036;-16
2022/05/05 00:19:37;;;;;;;1.17;0.90;;;20.90;37.10;;;24.71;24.49;101674.09;6184592;23;20020;-16
2022/05/05 00:22:05;;;;;;;1.45;1.00;;;20.90;37.00;;;24.72;24.24;101679.31;6184586;23;20017;-16
2022/05/05 00:24:32;;;;;;;0.95;0.73;;;20.90;37.00;;;24.71;24.22;101674.94;6184599;23;20016;-16
2022/05/05 00:27:00;;;;;;;0.80;0.80;;;20.90;37.00;;;24.71;24.41;101679.44;6184635;23;20009;-16
2022/05/05 00:29:28;;;;;;;1.50;0.70;;;20.90;37.00;;;24.71;24.36;101682.97;6184306;23;20017;-16
2022/05/05 00:31:55;;;;;;;1.35;0.90;;;20.90;37.00;;;24.69;24.45;101675.97;6184495;23;20121;-16
2022/05/05 00:34:21;;;;;;;0.82;0.82;;;20.90;37.00;;;24.71;24.43;101676.75;6182846;23;20493;-16
2022/05/05 00:36:46;;;;;;;0.85;0.82;;;20.90;37.00;;;24.67;24.31;101669.88;6184548;23;20022;-16
2022/05/05 00:39:13;;;;;;;0.70;0.70;;;20.90;37.00;;;24.64;24.22;101670.97;6184658;23;20321;-16
2022/05/05 00:41:45;;;;;;;0.80;0.77;;;20.90;37.00;;;24.68;24.43;101684.97;6185093;23;20028;-16
2022/05/05 00:44:12;;;;;;;1.00;0.90;;;20.90;37.00;;;24.65;24.29;101677.16;6184805;23;20020;-16
2022/05/05 00:46:38;;;;;;;0.65;0.65;;;20.90;37.00;;;24.71;24.36;101684.78;6184647;23;20099;-16
2022/05/05 00:49:05;;;;;;;1.15;0.90;;;20.90;37.00;;;24.63;24.30;101677.25;6184633;23;20049;-16
2022/05/05 00:51:31;;;;;;;2.22;1.20;;;20.90;37.00;;;24.68;24.27;101680.47;6184960;23;20071;-16
2022/05/05 00:53:57;;;;;;;1.13;0.93;;;20.90;37.00;;;24.70;24.26;101688.41;6184370;23;20017;-16
2022/05/05 00:56:24;;;;;;;0.95;0.80;;;20.90;37.00;;;24.67;24.15;101683.25;6184222;23;20041;-16
2022/05/05 00:58:55;;;;;;;0.80;0.70;;;20.90;37.00;;;24.67;24.37;101677.91;6184221;23;20090;-16
2022/05/05 01:01:23;;;;;;;0.55;0.55;;;20.90;37.00;;;24.68;24.35;101682.31;6184367;23;20013;-16
2022/05/05 01:03:49;;;;;;;0.70;0.70;;;20.90;37.00;;;24.69;24.23;101686.69;6184173;23;20088;-16
2022/05/05 01:06:16;;;;;;;1.35;1.00;;;20.90;37.00;;;24.69;24.44;101694.69;6184159;23;20020;-16
2022/05/05 01:08:43;;;;;;;1.25;0.80;;;20.90;37.00;;;24.66;24.13;101679.72;6184536;23;20328;-16
2022/05/05 01:11:09;;;;;;;0.98;0.90;;;20.90;37.00;;;24.62;24.07;101674.69;6184149;23;20043;-16
2022/05/05 01:13:40;;;;;;;1.23;0.90;;;20.90;37.00;;;24.60;24.40;101672.09;6184029;23;20017;-16
2022/05/05 01:16:09;;;;;;;1.52;1.05;;;20.90;37.00;;;24.62;24.19;101675.53;6184421;23;20096;-16
2022/05/05 01:18:35;;;;;;;3.13;1.20;;;20.90;37.00;;;24.69;24.42;101689.34;6184163;23;20017;-16
2022/05/05 01:21:02;;;;;;;0.73;0.70;;;20.90;37.00;;;24.65;24.20;101685.19;6183850;23;20083;-16
2022/05/05 01:23:28;;;;;;;1.08;0.98;;;20.80;37.00;;;24.63;24.37;101681.75;6184148;23;20008;-16
2022/05/05 01:28:45;;;;;;;1.05;0.65;;;20.90;37.00;;;24.65;24.44;101696.72;6209575;23;20009;-16
2022/05/05 01:31:11;;;;;;;0.98;0.80;;;20.80;36.90;;;24.59;24.55;101687.28;6185960;23;20320;-16
2022/05/05 01:33:38;;;;;;;1.00;0.80;;;20.90;37.00;;;24.60;24.13;101683.63;6183884;23;20013;-16
2022/05/05 01:36:04;;;;;;;1.10;1.00;;;20.80;37.00;;;24.66;24.09;101700.25;6184565;23;20331;-16
2022/05/05 01:38:39;;;;;;;0.60;0.60;;;20.90;36.90;;;24.64;24.31;101696.81;6185379;23;20013;-16
2022/05/05 01:41:14;;;;;;;1.00;0.90;;;20.80;36.90;;;24.60;24.14;101690.81;6187937;23;20016;-16
2022/05/05 01:43:42;;;;;;;1.10;1.00;;;20.80;36.90;;;24.66;24.40;101700.25;6185784;23;20032;-16
2022/05/05 01:46:08;;;;;;;0.82;0.65;;;20.80;36.90;;;24.68;24.10;101707.22;6183776;23;20343;-16
2022/05/05 01:48:35;;;;;;;1.15;0.90;;;20.90;36.90;;;24.64;24.16;101703.03;6185405;23;20016;-16
2022/05/05 01:51:02;;;;;;;1.08;0.80;;;20.80;36.90;;;24.61;24.37;101703.25;6185372;23;20017;-16
2022/05/05 01:53:28;;;;;;;0.70;0.70;;;20.90;36.90;;;24.66;24.21;101702.91;6185651;23;20072;-16
2022/05/05 01:55:54;;;;;;;0.73;0.73;;;20.90;36.90;;;24.63;24.23;101701.31;6185496;23;20470;-16
2022/05/05 01:58:20;;;;;;;0.65;0.60;;;20.80;36.90;;;24.62;24.19;101696.06;6185437;23;20436;-16
2022/05/05 02:00:46;;;;;;;1.40;0.82;;;20.80;36.90;;;24.66;24.28;101708.25;6213104;23;20023;-16
2022/05/05 02:03:14;;;;;;;1.02;0.90;;;20.80;36.90;;;24.61;24.36;101705.91;6186838;23;20008;-15
2022/05/05 02:05:42;;;;;;;1.13;0.90;;;20.80;36.90;;;24.60;24.14;101709.53;6185723;23;20019;-15
2022/05/05 02:08:09;;;;;;;0.90;0.85;;;20.80;36.90;;;24.53;24.17;101698.34;6185276;23;20009;-16
2022/05/05 02:10:35;;;;;;;0.98;0.85;;;20.80;36.90;;;24.65;24.10;101723.47;6185216;23;20021;-15
2022/05/05 02:13:01;;;;;;;1.40;0.95;;;20.80;36.90;;;24.64;24.17;101720.88;6185582;23;20024;-15
2022/05/05 02:15:28;;;;;;;1.33;0.80;;;20.80;36.90;;;24.59;24.21;101711.34;6185212;23;20017;-16
2022/05/05 02:17:54;;;;;;;0.75;0.70;;;20.80;36.80;;;24.61;24.32;101713.94;6185319;23;20337;-16
2022/05/05 02:20:20;;;;;;;0.80;0.70;;;20.80;36.90;;;24.64;24.36;101718.22;6184377;23;20040;-15
2022/05/05 02:22:45;;;;;;;0.82;0.73;;;20.80;36.80;;;24.60;24.17;101706.84;6185298;23;20336;-15
2022/05/05 02:25:11;;;;;;;1.17;0.80;;;20.80;36.80;;;24.64;24.26;101721.75;6185525;23;20013;-15
2022/05/05 02:27:49;;;;;;;0.73;0.73;;;20.80;36.90;;;24.63;24.32;101728.06;6188490;23;20367;-16
2022/05/05 02:30:17;;;;;;;1.13;0.85;;;20.80;36.80;;;24.66;24.34;101732.34;6185875;23;20020;-15
2022/05/05 02:32:43;;;;;;;0.88;0.70;;;20.80;36.80;;;24.60;24.12;101725.56;6185085;23;20092;-15
2022/05/05 02:35:10;;;;;;;0.98;0.88;;;20.80;36.80;;;24.60;24.22;101726.41;6185171;23;20085;-15
2022/05/05 02:40:20;;;;;;;1.05;0.70;;;20.90;36.80;;;24.65;24.13;101728.81;6185583;23;20012;-15
2022/05/05 02:42:46;;;;;;;0.70;0.70;;;20.90;36.70;;;24.66;24.28;101725.19;6184726;23;20435;-15
2022/05/05 02:45:12;;;;;;;2.67;0.90;;;20.90;36.70;;;24.65;24.27;101728.81;6183540;23;20017;-15
2022/05/05 02:47:38;;;;;;;1.23;1.00;;;20.90;36.70;;;24.66;24.36;101730.53;6185103;23;20048;-16
2022/05/05 02:50:04;;;;;;;1.02;0.90;;;20.90;36.70;;;24.67;24.21;101736.72;6185014;23;20071;-15
2022/05/05 02:52:30;;;;;;;1.35;1.13;;;20.90;37.20;;;24.62;24.03;101722.81;6185119;23;20009;-15
2022/05/05 02:54:56;;;;;;;1.08;0.90;;;20.90;37.20;;;24.68;24.08;101725.09;6185214;23;20020;-15
2022/05/05 02:57:24;;;;;;;0.70;0.68;;;20.90;36.60;;;24.63;24.13;101720.03;6185170;23;20063;-15
2022/05/05 02:59:54;;;;;;;1.13;0.98;;;20.90;36.60;;;24.66;24.14;101729.66;6185233;23;20313;-15
2022/05/05 03:02:20;;;;;;;1.52;0.85;;;20.90;36.60;;;24.63;24.26;101716.50;6185135;23;20017;-15
2022/05/05 03:04:47;;;;;;;0.80;0.80;;;20.90;36.60;;;24.67;24.24;101728.72;6183550;23;20147;-15
2022/05/05 03:07:14;;;;;;;0.90;0.73;;;20.90;36.70;;;24.61;24.11;101716.59;6185587;23;20011;-15
2022/05/05 03:09:40;;;;;;;1.08;0.93;;;20.90;36.70;;;24.63;24.02;101722.72;6185050;23;20083;-15
2022/05/05 03:12:08;;;;;;;1.20;1.10;;;20.90;36.60;;;24.68;24.06;101730.44;6185040;23;20009;-16
2022/05/05 03:14:34;;;;;;;1.38;0.90;;;20.90;36.60;;;24.68;23.98;101727.78;6185030;23;20188;-15
2022/05/05 03:17:01;;;;;;;1.10;1.00;;;20.90;36.60;;;24.60;24.20;101718.41;6184941;23;20011;-15
2022/05/05 03:19:28;;;;;;;0.70;0.70;;;20.90;36.60;;;24.67;24.17;101732.25;6185009;23;20013;-15
2022/05/05 03:21:57;;;;;;;0.70;0.70;;;20.90;36.60;;;24.62;24.21;101720.97;6184987;23;20019;-15
2022/05/05 03:24:24;;;;;;;0.80;0.80;;;20.90;36.60;;;24.65;24.14;101733.31;6184953;23;20032;-15
2022/05/05 03:26:50;;;;;;;1.40;0.82;;;20.90;36.60;;;24.63;24.16;101722.72;6184953;23;20017;-15
2022/05/05 03:29:15;;;;;;;1.30;0.80;;;20.90;36.60;;;24.64;24.22;101721.75;6185182;23;20040;-15
2022/05/05 03:31:41;;;;;;;0.70;0.70;;;20.90;36.60;;;24.67;24.14;101734.06;6185171;23;20009;-15
2022/05/05 03:34:07;;;;;;;1.33;0.90;;;20.90;36.60;;;24.62;23.98;101723.66;6186828;23;20312;-15
2022/05/05 03:36:33;;;;;;;1.45;0.70;;;20.90;36.60;;;24.66;24.18;101730.53;6187711;23;20020;-15
2022/05/05 03:38:59;;;;;;;1.20;0.88;;;20.90;36.60;;;24.64;24.14;101732.47;6185133;23;20562;-15
2022/05/05 03:41:25;;;;;;;1.00;0.90;;;20.90;36.60;;;24.65;23.92;101727.97;6185194;23;20495;-15
2022/05/05 03:43:52;;;;;;;1.05;0.90;;;20.90;36.60;;;24.64;24.07;101729.78;6185213;23;20051;-15
2022/05/05 03:46:18;;;;;;;0.70;0.70;;;20.90;36.60;;;24.65;24.08;101734.16;6185287;23;20017;-15
2022/05/05 03:48:44;;;;;;;1.13;0.75;;;20.90;36.60;;;24.70;24.17;101740.06;6184864;23;20071;-15
2022/05/05 03:51:10;;;;;;;1.58;0.80;;;21.00;36.60;;;24.71;23.96;101733.78;6184936;23;20436;-15
2022/05/05 03:53:36;;;;;;;0.80;0.73;;;21.00;36.60;;;24.68;23.89;101733.13;6185138;23;20013;-15
2022/05/05 03:56:04;;;;;;;0.77;0.77;;;21.00;36.60;;;24.74;23.96;101746.97;6185134;23;20013;-16
2022/05/05 03:58:30;;;;;;;1.45;0.90;;;21.00;36.50;;;24.71;24.14;101738.28;6184734;23;20008;-15
2022/05/05 04:00:56;;;;;;;0.88;0.88;;;21.00;36.50;;;24.77;24.14;101754.78;6184901;23;20013;-15
2022/05/05 04:03:30;;;;;;;1.52;0.80;;;21.00;36.40;;;24.73;23.86;101739.03;6184770;23;20013;-15
2022/05/05 04:06:06;;;;;;;2.17;0.82;;;21.00;36.40;;;24.81;24.14;101757.25;6184811;23;20041;-16
2022/05/05 04:08:33;;;;;;;1.05;0.73;;;21.10;36.40;;;24.80;23.94;101751.03;6185424;23;20320;-15
2022/05/05 04:11:00;;;;;;;0.77;0.77;;;21.10;36.40;;;24.80;24.06;101753.72;6185124;23;20092;-15
2022/05/05 04:13:26;;;;;;;1.52;0.95;;;21.10;36.30;;;24.83;24.06;101755.34;6187846;23;20040;-15
2022/05/05 04:15:52;;;;;;;0.73;0.70;;;21.10;36.30;;;24.88;23.88;101758.59;6184673;23;20009;-15
2022/05/05 04:18:19;;;;;;;1.58;0.90;;;21.10;36.30;;;24.83;24.05;101742.81;6185288;23;20078;-15
2022/05/05 04:20:47;;;;;;;1.05;0.80;;;21.20;36.30;;;24.90;23.97;101760.19;6184604;23;20020;-15
2022/05/05 04:23:13;;;;;;;1.45;0.80;;;21.20;36.30;;;24.92;23.91;101755.59;6185356;23;20071;-16
2022/05/05 04:25:43;;;;;;;0.80;0.77;;;21.20;36.30;;;24.93;23.92;101756.47;6184920;23;20041;-15
2022/05/05 04:28:11;;;;;;;0.73;0.70;;;21.20;36.20;;;25.01;23.78;101767.53;6185330;23;20156;-16
2022/05/05 04:30:38;;;;;;;0.88;0.80;;;21.20;36.20;;;24.95;23.86;101751.88;6184330;23;20013;-15
2022/05/05 04:33:04;;;;;;;1.17;0.90;;;21.30;36.20;;;25.02;23.81;101769.22;6184785;23;20013;-16
2022/05/05 04:35:30;;;;;;;1.13;0.88;;;21.30;36.20;;;25.00;23.87;101760.44;6182922;23;20433;-15
2022/05/05 04:37:56;;;;;;;0.95;0.73;;;21.30;36.20;;;25.09;23.90;101778.59;6184502;23;20112;-15
2022/05/05 04:40:22;;;;;;;0.93;0.80;;;21.30;36.10;;;25.14;23.81;101788.97;6182707;23;20092;-15
2022/05/05 04:42:48;;;;;;;1.15;1.00;;;21.40;36.20;;;25.13;23.87;101769.41;6184519;23;20017;-15
2022/05/05 04:45:14;;;;;;;1.00;0.80;;;21.40;36.10;;;25.13;23.72;101765.88;6187733;23;20016;-15
2022/05/05 04:47:40;;;;;;;1.17;0.70;;;21.40;36.10;;;25.20;23.68;101780.56;6184752;23;20092;-16
2022/05/05 04:50:06;;;;;;;2.17;1.00;;;21.50;36.10;;;25.17;23.73;101767.38;6184285;23;20041;-16
2022/05/05 04:52:32;;;;;;;1.35;0.90;;;21.50;36.00;;;25.18;23.62;101765.56;6182715;23;20096;-16
2022/05/05 04:54:59;;;;;;;0.82;0.77;;;21.50;36.00;;;25.27;23.61;101776.53;6184334;23;20009;-15
2022/05/05 04:57:25;;;;;;;1.40;1.00;;;21.50;35.90;;;25.30;23.82;101778.16;6184338;23;20339;-15
2022/05/05 04:59:50;;;;;;;0.68;0.63;;;21.60;35.90;;;25.28;23.61;101772.06;6184202;23;20013;-15
2022/05/05 05:02:16;;;;;;;1.27;0.90;;;21.60;35.80;;;25.36;23.71;101783.13;6184336;23;20095;-15
2022/05/05 05:04:42;;;;;;;1.63;0.77;;;21.70;35.80;;;25.39;23.60;101785.56;6184834;23;20309;-15
2022/05/05 05:07:08;;;;;;;1.10;0.90;;;21.70;35.80;;;25.42;23.54;101790.72;6185657;23;20009;-16
2022/05/05 05:09:34;;;;;;;1.10;0.70;;;21.70;35.70;;;25.36;23.44;101777.78;6185595;23;20059;-16
2022/05/05 05:12:02;;;;;;;1.08;0.85;;;21.70;35.70;;;25.39;23.44;101782.06;6185876;23;20016;-15
2022/05/05 05:14:29;;;;;;;1.38;0.98;;;21.70;35.70;;;25.42;23.48;101795.25;6183972;23;20064;-15
2022/05/05 05:16:56;;;;;;;1.00;0.90;;;21.70;35.70;;;25.45;23.69;101792.34;6186266;23;20092;-15
2022/05/05 05:19:22;;;;;;;0.82;0.82;;;21.80;35.70;;;25.52;23.49;101807.03;6185688;23;20444;-15
2022/05/05 05:21:48;;;;;;;0.88;0.80;;;21.80;35.70;;;25.57;23.63;101814.78;6188348;23;20494;-15
2022/05/05 05:24:14;;;;;;;0.80;0.80;;;21.90;35.60;;;25.60;23.43;101812.75;6185584;23;20020;-16
2022/05/05 05:26:40;;;;;;;1.52;0.70;;;21.90;35.50;;;25.68;23.28;101809.56;6185509;23;20088;-15
2022/05/05 05:29:06;;;;;;;0.98;0.98;;;22.00;35.40;;;25.68;23.33;101805.06;6211026;23;20038;-16
2022/05/05 05:31:32;;;;;;;0.88;0.75;;;22.10;35.40;;;25.74;23.29;101803.78;6186322;23;20013;-15
2022/05/05 05:33:59;;;;;;;0.85;0.70;;;22.10;35.40;;;25.77;23.22;101802.72;6185414;23;20017;-16
2022/05/05 05:36:25;;;;;;;1.02;0.75;;;22.10;35.30;;;25.83;23.30;101813.03;6185386;23;20017;-16
2022/05/05 05:38:50;;;;;;;0.80;0.80;;;22.10;35.30;;;25.82;23.12;101817.50;6185335;23;20071;-15
2022/05/05 05:41:16;;;;;;;0.82;0.70;;;22.10;35.30;;;25.86;23.30;101819.03;6208610;23;20013;-16
2022/05/05 05:43:42;;;;;;;0.88;0.82;;;22.20;35.20;;;25.94;23.09;101829.22;6188263;23;20104;-16
2022/05/05 05:46:09;;;;;;;0.77;0.60;;;22.20;35.20;;;25.95;23.15;101836.34;6185374;23;20019;-16
2022/05/05 05:48:35;;;;;;;1.23;0.82;;;22.20;35.20;;;25.93;23.17;101824.84;6185515;23;20017;-16
2022/05/05 05:51:01;;;;;;;0.93;0.70;;;22.20;35.10;;;26.01;22.99;101829.69;6185748;23;20041;-16
2022/05/05 05:53:26;;;;;;;0.85;0.80;;;22.30;35.20;;;25.98;23.06;101822.75;6185283;23;20011;-16
2022/05/05 05:55:53;;;;;;;0.80;0.80;;;22.30;35.20;;;26.01;23.08;101821.66;6185152;23;20849;-16
2022/05/05 05:58:18;;;;;;;0.73;0.73;;;22.20;35.10;;;26.07;22.98;101835.50;6185483;23;20020;-16
2022/05/05 06:00:44;;;;;;;0.90;0.75;;;22.30;35.10;;;26.09;23.06;101840.75;6185542;23;20012;-16
2022/05/05 06:05:54;;;;;;;0.80;0.80;;;22.30;35.10;;;26.11;23.06;101833.47;6185205;23;20017;-16
2022/05/05 06:08:20;;;;;;;0.98;0.80;;;22.40;35.10;;;26.17;22.92;101832.19;6184885;23;20019;-16
2022/05/05 06:10:46;;;;;;;0.75;0.65;;;22.40;35.10;;;26.15;22.98;101834.97;6185416;23;20020;-16
2022/05/05 06:13:12;;;;;;;0.95;0.82;;;22.40;35.10;;;26.22;22.87;101841.63;6184719;23;20020;-16
2022/05/05 06:15:38;;;;;;;0.60;0.60;;;22.40;35.00;;;26.25;23.09;101846.78;6184762;23;20116;-16
2022/05/05 06:18:04;;;;;;;0.70;0.65;;;22.40;35.00;;;26.25;22.90;101838.72;6183797;23;20435;-16
2022/05/05 06:20:32;;;;;;;1.02;0.80;;;22.40;35.00;;;26.27;22.81;101843.16;6184968;23;20095;-16
2022/05/05 06:22:58;;;;;;;0.93;0.80;;;22.50;35.00;;;26.35;22.94;101848.84;6185118;23;20021;-16
2022/05/05 06:25:24;;;;;;;1.35;0.90;;;22.50;35.00;;;26.37;22.97;101853.09;6185428;23;20342;-16
2022/05/05 06:27:50;;;;;;;1.48;0.88;;;22.50;34.90;;;26.40;22.77;101852.91;6183554;23;20037;-16
2022/05/05 06:30:17;;;;;;;0.70;0.70;;;22.60;34.90;;;26.46;22.70;101859.66;6188341;23;20036;-16
2022/05/05 06:32:45;;;;;;;1.17;0.65;;;22.60;34.90;;;26.43;22.65;101852.69;6185052;23;20063;-16
2022/05/05 06:35:11;;;;;;;0.80;0.70;;;22.60;34.90;;;26.47;22.72;101853.31;6183989;23;20013;-16
2022/05/05 06:37:37;;;;;;;0.60;0.60;;;22.50;34.80;;;26.47;22.75;101858.69;6185826;23;20328;-16
2022/05/05 06:40:07;;;;;;;0.73;0.73;;;22.50;34.80;;;26.47;22.76;101857.84;6184941;23;20092;-16
2022/05/05 06:42:33;;;;;;;0.73;0.73;;;22.60;34.80;;;26.46;22.71;101848.91;6185792;23;20088;-16
2022/05/05 06:45:03;;;;;;;0.70;0.70;;;22.60;34.80;;;26.50;22.65;101850.44;6185181;23;20343;-16
2022/05/05 06:47:29;;;;;;;1.00;0.63;;;22.60;34.80;;;26.46;22.83;101840.88;6185070;23;20024;-16
2022/05/05 06:49:54;;;;;;;0.60;0.60;;;22.60;34.80;;;26.55;22.51;101852.81;6185382;23;20021;-16
2022/05/05 06:52:20;;;;;;;0.95;0.80;;;22.60;34.80;;;26.56;22.70;101862.53;6185295;23;20013;-16
2022/05/05 06:54:46;;;;;;;1.25;0.90;;;22.60;34.80;;;26.54;22.52;101851.06;6184848;23;20091;-16
2022/05/05 06:57:12;;;;;;;0.70;0.50;;;22.60;34.80;;;26.58;22.69;101868.66;6184995;23;20019;-16
2022/05/05 06:59:38;;;;;;;0.77;0.77;;;22.60;34.80;;;26.54;22.54;101854.59;6184928;23;20308;-16
2022/05/05 07:02:04;;;;;;;1.10;0.90;;;22.60;34.80;;;26.54;22.64;101859.13;6184875;23;20020;-16
2022/05/05 07:07:29;;;;;;;1.15;0.80;;;22.60;34.80;;;26.60;22.61;101861.38;6165746;23;20016;-16
2022/05/05 07:12:39;;;;;;;0.88;0.80;;;22.60;34.80;;;26.56;22.56;101852.69;6187541;23;20420;-16
2022/05/05 07:15:07;;;;;;;1.25;0.68;;;22.60;34.70;;;26.62;22.38;101860.28;6185261;23;20013;-16
2022/05/05 07:17:33;;;;;;;0.70;0.70;;;22.70;34.80;;;26.62;22.36;101859.44;6184856;23;20067;-16
2022/05/05 07:19:59;;;;;;;0.60;0.60;;;22.70;34.70;;;26.68;22.47;101860.84;6183145;23;20013;-16
2022/05/05 07:22:25;;;;;;;0.75;0.60;;;22.70;34.60;;;26.70;22.43;101859.78;6184763;23;20017;-16
2022/05/05 07:24:51;;;;;;;1.95;0.70;;;22.80;34.60;;;26.68;22.29;101855.50;6184842;23;20031;-16
2022/05/05 07:27:16;;;;;;;1.95;0.60;;;22.80;34.60;;;26.77;22.29;101861.06;6184538;23;20063;-16
2022/05/05 07:29:42;;;;;;;0.70;0.60;;;22.80;34.50;;;26.75;22.14;101857.63;6184776;23;20020;-16
2022/05/05 07:32:09;;;;;;;0.60;0.60;;;22.80;34.50;;;26.82;22.30;101859.91;6187709;23;20071;-16
2022/05/05 07:34:35;;;;;;;0.60;0.60;;;22.80;34.50;;;26.81;22.40;101861.69;6184805;23;20036;-16
2022/05/05 07:37:02;;;;;;;1.15;0.77;;;22.90;34.60;;;26.79;22.18;101861.81;6184961;23;20332;-16
2022/05/05 07:39:29;;;;;;;1.00;0.77;;;22.80;34.50;;;26.79;22.14;101864.47;6184678;23;20091;-16
2022/05/05 07:41:56;;;;;;;1.50;0.80;;;22.80;34.50;;;26.76;22.27;101870.09;6185044;23;20013;-16
2022/05/05 07:44:22;;;;;;;0.88;0.80;;;22.80;34.60;;;26.81;22.45;101869.75;6184657;23;20013;-16
2022/05/05 07:46:47;;;;;;;0.60;0.60;;;22.80;34.60;;;26.76;22.20;101875.47;6184761;23;20015;-16
2022/05/05 07:49:13;;;;;;;0.82;0.70;;;22.80;34.60;;;26.82;22.45;101876.84;6185111;23;20375;-16
2022/05/05 07:51:40;;;;;;;0.73;0.68;;;22.80;34.60;;;26.77;22.21;101868.25;6208795;23;20017;-16
2022/05/05 07:56:51;;;;;;;0.75;0.68;;;22.80;34.60;;;26.74;22.39;101876.53;6184387;23;20133;-16
2022/05/05 07:59:19;;;;;;;0.73;0.63;;;22.80;34.60;;;26.74;22.32;101880.06;6187371;23;20019;-16
2022/05/05 08:01:45;;;;;;;0.82;0.70;;;22.70;34.60;;;26.75;22.23;101886.31;6184645;23;20013;-16
2022/05/05 08:04:11;;;;;;;1.25;0.80;;;22.70;34.70;;;26.75;22.18;101889.84;6184651;23;20428;-16
2022/05/05 08:06:37;;;;;;;0.82;0.70;;;22.70;34.70;;;26.76;22.25;101883.50;6185063;23;20443;-16
2022/05/05 08:09:03;;;;;;;0.70;0.70;;;22.70;34.70;;;26.76;22.34;101888.88;6184712;23;20100;-16
2022/05/05 08:11:29;;;;;;;0.52;0.50;;;22.70;34.70;;;26.73;22.39;101889.09;6182371;23;20382;-17
2022/05/05 08:13:55;;;;;;;1.10;0.70;;;22.70;34.80;;;26.75;22.29;101881.78;6184550;23;20025;-16
2022/05/05 08:16:22;;;;;;;0.50;0.50;;;22.70;34.70;;;26.80;22.31;101893.06;6184408;23;20059;-16
2022/05/05 08:18:48;;;;;;;0.73;0.73;;;22.80;34.70;;;26.80;22.26;101889.53;6208365;23;20032;-16
2022/05/05 08:21:14;;;;;;;1.00;0.80;;;22.70;34.70;;;26.80;22.07;101894.88;6186454;23;20016;-16
2022/05/05 08:23:40;;;;;;;1.08;0.77;;;22.70;34.60;;;26.72;22.19;101890.03;6184303;23;20064;-16
2022/05/05 08:28:50;;;;;;;1.02;0.68;;;22.70;34.70;;;26.74;22.21;101901.53;6184360;23;20024;-16
2022/05/05 08:31:17;;;;;;;1.95;0.80;;;22.70;34.70;;;26.70;22.09;101891.13;6184251;23;20015;-16
2022/05/05 08:33:44;;;;;;;1.20;0.90;;;22.70;34.70;;;26.70;22.17;101891.13;6184062;23;20104;-16
2022/05/05 08:36:10;;;;;;;1.27;0.75;;;22.70;34.80;;;26.68;22.31;101888.56;6184159;23;20336;-16
2022/05/05 08:38:36;;;;;;;0.95;0.80;;;22.60;34.80;;;26.70;22.36;101894.66;6182877;23;20087;-17
2022/05/05 08:41:03;;;;;;;1.58;0.80;;;22.60;34.80;;;26.61;22.43;101881.84;6184705;23;20020;-16
2022/05/05 08:43:30;;;;;;;0.65;0.65;;;22.60;34.90;;;26.67;22.38;101896.72;6207632;23;20013;-16
2022/05/05 08:45:59;;;;;;;1.85;0.82;;;22.50;34.90;;;26.63;22.27;101901.44;6185875;23;20462;-16
2022/05/05 08:48:26;;;;;;;0.85;0.75;;;22.50;34.90;;;26.56;22.58;101890.25;6213499;23;20417;-16
2022/05/05 08:50:56;;;;;;;2.53;0.70;;;22.50;35.00;;;26.55;22.48;101899.25;6185817;23;20087;-16
2022/05/05 08:53:29;;;;;;;0.90;0.70;;;22.50;35.10;;;26.52;22.45;101909.34;6213825;23;20013;-16
2022/05/05 08:55:55;;;;;;;0.98;0.80;;;22.40;35.10;;;26.46;22.33;101890.97;6187341;23;20017;-16
2022/05/05 08:58:22;;;;;;;1.92;0.77;;;22.40;35.10;;;26.48;22.59;101906.00;6185328;23;20466;-16
2022/05/05 09:00:52;;;;;;;1.15;0.90;;;22.40;35.30;;;26.38;22.59;101891.50;6185299;23;20013;-16
2022/05/05 09:03:19;;;;;;;1.67;0.98;;;22.40;35.30;;;26.46;22.57;101907.06;6185801;23;20096;-16
2022/05/05 09:05:51;;;;;;;1.48;0.70;;;22.40;35.30;;;26.36;22.74;101899.69;6185189;23;20455;-16
2022/05/05 09:08:23;;;;;;;1.02;0.85;;;22.40;35.60;;;26.36;22.71;101905.03;6185403;23;20347;-16
2022/05/05 09:10:50;;;;;;;1.17;0.82;;;22.40;35.60;;;26.39;23.17;101909.31;6183915;23;20347;-16
2022/05/05 09:13:25;;;;;;;3.63;0.82;;;22.40;36.60;;;26.36;23.10;101909.53;6184891;23;20020;-16
2022/05/05 09:15:53;;;;;;;2.80;0.85;;;22.40;36.00;;;26.37;23.01;101913.94;6183598;23;20017;-17
2022/05/05 09:18:31;;;;;;;1.90;1.10;;;22.40;35.90;;;26.29;22.99;101906.41;6187367;23;20013;-16
2022/05/05 09:21:00;;;;;;;2.30;0.90;;;22.30;35.90;;;26.35;22.90;101922.06;6183436;23;20009;-18
2022/05/05 09:23:31;;;;;;;1.15;0.80;;;22.30;35.80;;;26.36;22.94;101926.50;6184375;23;20013;-16
2022/05/05 09:26:02;;;;;;;1.88;0.85;;;22.30;35.90;;;26.30;23.17;101910.81;6184519;23;20129;-18
2022/05/05 09:28:31;;;;;;;1.83;0.80;;;22.30;35.90;;;26.27;22.74;101902.97;6182534;23;20020;-17
2022/05/05 09:31:06;;;;;;;2.40;0.90;;;22.30;35.90;;;26.26;23.04;101911.97;6182611;23;20013;-17
2022/05/05 09:33:41;;;;;;;2.28;0.90;;;22.20;35.90;;;26.30;23.04;101915.31;6183138;23;20009;-17
2022/05/05 09:36:13;;;;;;;1.40;0.80;;;22.20;35.90;;;26.24;22.95;101914.78;6209250;23;20009;-18
2022/05/05 09:38:55;;;;;;;1.10;0.80;;;22.20;35.90;;;26.18;23.12;101901.78;6212525;23;20046;-17
2022/05/05 09:41:25;;;;;;;2.50;0.90;;;22.20;36.00;;;26.21;23.22;101908.75;6187647;23;20021;-17
2022/05/05 09:43:54;;;;;;;1.08;0.85;;;22.20;35.90;;;26.16;23.04;101910.88;6185321;23;20009;-16
2022/05/05 09:46:23;;;;;;;1.80;1.00;;;22.20;36.00;;;26.19;23.14;101914.22;6186025;23;20013;-17
2022/05/05 09:48:49;;;;;;;1.08;0.80;;;22.10;35.90;;;26.14;23.23;101919.03;6185589;23;20009;-17
2022/05/05 09:51:16;;;;;;;1.48;0.88;;;22.10;36.00;;;26.16;23.16;101921.59;6184940;23;20514;-17
2022/05/05 09:59:29;;;;;;;1.17;0.75;;;22.10;35.90;;;26.05;23.18;101916.97;6185342;23;20020;-17
2022/05/05 10:02:04;;;;;;;1.52;0.70;;;22.10;35.90;;;26.06;23.18;101924.03;6185266;23;20020;-18
2022/05/05 10:04:39;;;;;;;3.25;1.10;;;22.10;36.00;;;26.09;22.98;101931.03;6187135;23;20483;-17
2022/05/05 10:07:06;;;;;;;1.70;0.90;;;22.10;36.10;;;26.09;23.28;101934.56;6211609;23;20350;-17
2022/05/05 10:09:33;;;;;;;1.50;0.75;;;22.10;36.50;;;26.03;23.45;101927.81;6160484;23;20013;-17
2022/05/05 10:12:01;;;;;;;3.42;1.05;;;22.10;36.40;;;26.05;23.37;101933.06;6205097;23;20335;-17
2022/05/05 10:14:28;;;;;;;4.03;0.82;;;22.10;36.30;;;26.01;23.49;101927.06;6184609;23;20009;-17
2022/05/05 10:16:55;;;;;;;8.40;1.50;;;22.10;36.50;;;26.10;23.37;101930.94;6184764;23;20009;-17
2022/05/05 10:19:21;;;;;;;3.55;0.90;;;22.20;36.60;;;26.09;23.70;101929.19;6186398;23;20044;-17
2022/05/05 10:21:59;;;;;;;2.78;0.80;;;22.20;36.60;;;26.07;23.69;101925.78;6187242;23;20066;-17
2022/05/05 10:24:30;;;;;;;7.55;1.45;;;22.30;36.70;;;26.14;23.67;101935.09;6183391;23;20025;-17
2022/05/05 10:27:00;;;;;;;4.78;1.10;;;22.30;36.70;;;26.13;23.83;101928.03;6184704;23;20103;-17
2022/05/05 10:29:41;;;;;;;2.85;1.15;;;22.30;37.00;;;26.17;23.91;101924.19;6184805;23;20451;-17
2022/05/05 10:32:18;;;;;;;3.88;1.30;;;22.40;36.80;;;26.18;23.85;101925.06;6184921;23;20013;-17
2022/05/05 10:34:51;;;;;;;4.28;1.08;;;22.40;36.90;;;26.17;23.88;101918.81;6184646;23;20097;-17
2022/05/05 10:37:39;;;;;;;1.83;0.95;;;22.40;36.80;;;26.24;23.85;101938.03;6185290;23;20092;-17
2022/05/05 10:40:10;;;;;;;1.00;0.63;;;22.50;36.90;;;26.27;23.84;101937.81;6184652;23;20383;-17
2022/05/05 10:42:45;;;;;;;3.47;1.10;;;22.50;36.70;;;26.20;23.73;101918.63;6183188;23;20021;-18